Time;durP1;ratioP1;P1;durP2;ratioP2;P2;SDS_P1;SDS_P2;PMS_P1;PMS_P2;Temp;Humidity;BMP_temperature;BMP_pressure;BME280_temperature;BME280_humidity;BME280_pressure;Samples;Min_cycle;Max_cycle;Signal;HPM_P1;HPM_P2
2023/09/06 00:02:13;;;;;;;5.78;1.05;;;19.90;99.90;;;;;;4923085;29;20201;-84
2023/09/06 00:04:46;;;;;;;6.03;1.00;;;19.90;99.90;;;;;;4954840;28;20199;-94
2023/09/06 00:07:16;;;;;;;4.72;1.10;;;19.90;99.90;;;;;;4949486;28;20279;-93
2023/09/06 00:09:49;;;;;;;5.32;0.98;;;19.90;99.70;;;;;;4953295;29;20194;-93
2023/09/06 00:12:20;;;;;;;4.28;1.00;;;20.00;99.30;;;;;;4952186;29;20235;-94
2023/09/06 00:14:51;;;;;;;3.85;1.30;;;20.10;99.20;;;;;;4940899;29;20283;-93
2023/09/06 00:17:22;;;;;;;3.72;1.13;;;20.20;98.50;;;;;;4923231;29;20285;-94
2023/09/06 00:19:57;;;;;;;5.22;1.50;;;20.40;97.60;;;;;;4929657;29;20271;-94
2023/09/06 00:22:28;;;;;;;6.85;1.40;;;20.50;96.90;;;;;;4937209;29;20208;-94
2023/09/06 00:24:59;;;;;;;5.80;0.90;;;20.40;96.70;;;;;;4920989;29;20205;-94
2023/09/06 00:27:30;;;;;;;4.22;1.25;;;20.50;97.00;;;;;;4936786;29;20221;-94
2023/09/06 00:30:02;;;;;;;4.05;1.02;;;20.60;96.50;;;;;;4936598;29;20211;-94
2023/09/06 00:32:33;;;;;;;6.22;1.20;;;20.60;96.00;;;;;;4941540;29;20227;-94
2023/09/06 00:35:08;;;;;;;3.78;1.05;;;20.80;96.30;;;;;;4941382;29;20236;-94
2023/09/06 00:37:40;;;;;;;3.10;0.93;;;20.80;95.90;;;;;;4940235;29;20212;-94
2023/09/06 00:40:17;;;;;;;4.20;0.77;;;20.80;95.40;;;;;;4905740;29;20221;-94
2023/09/06 00:42:50;;;;;;;5.47;1.17;;;20.90;95.50;;;;;;4922169;29;20215;-94
2023/09/06 00:45:25;;;;;;;3.65;1.10;;;20.80;94.60;;;;;;4939520;29;20197;-94
2023/09/06 00:48:01;;;;;;;5.85;1.35;;;20.90;95.00;;;;;;4943869;29;20191;-93
2023/09/06 00:50:36;;;;;;;4.35;0.90;;;20.90;94.70;;;;;;4954450;29;20744;-92
2023/09/06 00:53:10;;;;;;;4.72;1.00;;;21.00;94.50;;;;;;4925557;29;20260;-91
2023/09/06 00:55:41;;;;;;;3.90;1.30;;;21.10;94.40;;;;;;4916816;29;20222;-91
2023/09/06 00:58:15;;;;;;;8.05;1.10;;;21.00;93.50;;;;;;4941690;29;20197;-89
2023/09/06 01:00:46;;;;;;;4.82;1.10;;;21.00;93.50;;;;;;4939191;29;20593;-89
2023/09/06 01:03:18;;;;;;;4.45;1.02;;;21.00;93.10;;;;;;4939623;29;20207;-91
2023/09/06 01:05:58;;;;;;;4.82;1.17;;;21.00;93.50;;;;;;4938538;29;20570;-90
2023/09/06 01:08:34;;;;;;;5.70;1.40;;;21.10;93.00;;;;;;4938596;28;20197;-91
2023/09/06 01:11:21;;;;;;;4.22;1.00;;;21.10;93.60;;;;;;4937462;29;20201;-93
2023/09/06 01:13:56;;;;;;;3.97;1.23;;;21.20;93.30;;;;;;4916853;29;20204;-88
2023/09/06 01:16:31;;;;;;;3.60;0.98;;;21.30;92.50;;;;;;4939942;29;20204;-90
2023/09/06 01:19:02;;;;;;;2.97;0.80;;;21.30;92.50;;;;;;4939671;29;20275;-89
2023/09/06 01:21:40;;;;;;;5.53;1.10;;;21.30;92.80;;;;;;4921495;29;20200;-90
2023/09/06 01:24:16;;;;;;;5.82;1.25;;;21.50;92.10;;;;;;4929532;29;20606;-92
2023/09/06 01:26:47;;;;;;;5.07;1.10;;;21.60;91.70;;;;;;4939381;29;20204;-93
2023/09/06 01:29:18;;;;;;;7.28;1.15;;;21.80;91.60;;;;;;4935039;29;20204;-92
2023/09/06 01:31:49;;;;;;;3.55;1.00;;;21.80;91.00;;;;;;4935231;29;20624;-91
2023/09/06 01:34:20;;;;;;;3.97;1.00;;;21.80;90.80;;;;;;4920467;29;20316;-89
2023/09/06 01:36:51;;;;;;;4.85;1.10;;;21.90;90.40;;;;;;4919540;29;20214;-89
2023/09/06 01:39:27;;;;;;;7.78;1.48;;;21.70;90.80;;;;;;4917946;29;20225;-89
2023/09/06 01:41:58;;;;;;;3.97;1.30;;;21.80;91.40;;;;;;4938616;29;20271;-89
2023/09/06 01:44:31;;;;;;;5.32;1.15;;;22.00;91.60;;;;;;4921567;29;20209;-90
2023/09/06 01:47:03;;;;;;;6.72;1.30;;;22.10;90.30;;;;;;4923418;29;20221;-89
2023/09/06 01:49:34;;;;;;;3.67;1.20;;;22.00;89.90;;;;;;4937140;29;20214;-83
2023/09/06 01:52:05;;;;;;;4.75;1.33;;;22.10;90.20;;;;;;4929235;29;20211;-89
2023/09/06 01:54:39;;;;;;;3.70;1.23;;;22.20;89.40;;;;;;4941323;29;20200;-90
2023/09/06 01:57:10;;;;;;;5.40;1.23;;;22.10;89.10;;;;;;4938046;29;20201;-89
2023/09/06 01:59:41;;;;;;;2.53;1.30;;;22.30;90.00;;;;;;4937631;29;20224;-91
2023/09/06 02:02:12;;;;;;;5.35;1.60;;;22.30;88.00;;;;;;4939964;29;20204;-90
2023/09/06 02:04:43;;;;;;;6.20;1.50;;;22.30;90.00;;;;;;4949031;29;20660;-89
2023/09/06 02:07:15;;;;;;;3.90;1.70;;;22.40;88.30;;;;;;4926827;29;20202;-90
2023/09/06 02:09:49;;;;;;;7.00;1.95;;;22.50;88.00;;;;;;4924588;29;20201;-89
2023/09/06 02:12:20;;;;;;;5.57;1.98;;;22.50;86.40;;;;;;4933956;29;20687;-90
2023/09/06 02:14:52;;;;;;;3.47;2.03;;;22.50;87.20;;;;;;4939090;29;20197;-92
2023/09/06 02:17:25;;;;;;;6.38;2.05;;;22.30;88.00;;;;;;4939248;29;20221;-91
2023/09/06 02:19:56;;;;;;;4.95;1.50;;;22.30;89.90;;;;;;4940819;29;20238;-90
2023/09/06 02:22:27;;;;;;;4.45;1.60;;;22.20;89.40;;;;;;4934106;29;20212;-93
2023/09/06 02:25:04;;;;;;;4.45;1.75;;;22.20;88.90;;;;;;4922951;29;20198;-90
2023/09/06 02:27:35;;;;;;;6.50;1.90;;;22.20;90.30;;;;;;4925368;29;20243;-91
2023/09/06 02:30:08;;;;;;;7.85;1.80;;;22.30;90.10;;;;;;4940764;29;20200;-90
2023/09/06 02:32:39;;;;;;;4.40;1.38;;;22.40;90.30;;;;;;4931470;29;20209;-89
2023/09/06 02:35:11;;;;;;;4.75;1.88;;;22.30;90.60;;;;;;4928293;29;20205;-91
2023/09/06 02:37:43;;;;;;;4.22;1.80;;;22.30;91.10;;;;;;4924138;29;20232;-90
2023/09/06 02:40:18;;;;;;;5.18;1.70;;;22.20;91.00;;;;;;4922322;29;20229;-91
2023/09/06 02:42:51;;;;;;;3.67;1.50;;;22.30;91.30;;;;;;4927069;29;20196;-92
2023/09/06 02:45:22;;;;;;;5.28;1.48;;;22.30;91.20;;;;;;4920473;29;20631;-91
2023/09/06 02:47:54;;;;;;;5.75;1.40;;;22.30;91.70;;;;;;4918832;29;20304;-91
2023/09/06 02:50:25;;;;;;;3.00;1.73;;;22.20;92.00;;;;;;4920780;29;20200;-89
2023/09/06 02:52:56;;;;;;;6.28;2.15;;;22.30;91.50;;;;;;4925584;29;20205;-91
2023/09/06 02:55:30;;;;;;;5.47;1.50;;;22.40;92.10;;;;;;4919117;29;20212;-89
2023/09/06 02:58:01;;;;;;;4.07;1.38;;;22.40;91.40;;;;;;4932360;29;20212;-90
2023/09/06 03:00:35;;;;;;;3.58;1.02;;;22.40;92.60;;;;;;4938176;29;20327;-88
2023/09/06 03:03:07;;;;;;;3.08;1.30;;;22.40;92.70;;;;;;4938619;29;20735;-89
2023/09/06 03:05:41;;;;;;;4.43;1.60;;;22.40;92.90;;;;;;4936159;29;20205;-91
2023/09/06 03:08:12;;;;;;;3.70;1.45;;;22.40;93.10;;;;;;4918350;29;20291;-91
2023/09/06 03:10:48;;;;;;;3.58;1.35;;;22.10;93.10;;;;;;4918946;29;20216;-90
2023/09/06 03:13:20;;;;;;;2.97;1.23;;;22.20;93.60;;;;;;4942133;29;20185;-91
2023/09/06 03:15:51;;;;;;;6.47;1.60;;;22.20;93.70;;;;;;4927134;29;20288;-89
2023/09/06 03:18:22;;;;;;;5.50;1.80;;;22.20;93.30;;;;;;4937045;29;20653;-91
2023/09/06 03:20:55;;;;;;;7.25;1.50;;;22.10;93.60;;;;;;4943828;29;20228;-90
2023/09/06 03:23:25;;;;;;;5.35;1.13;;;22.20;92.60;;;;;;4920628;29;20570;-90
2023/09/06 03:25:59;;;;;;;5.50;1.40;;;22.20;92.60;;;;;;4918272;29;20679;-90
2023/09/06 03:28:30;;;;;;;4.63;1.35;;;22.20;92.30;;;;;;4918306;29;20252;-89
2023/09/06 03:31:01;;;;;;;2.20;0.80;;;22.30;92.20;;;;;;4917508;29;20201;-93
2023/09/06 03:33:32;;;;;;;2.15;0.70;;;22.20;92.30;;;;;;4923293;29;20267;-87
2023/09/06 03:36:07;;;;;;;2.63;1.02;;;22.20;92.20;;;;;;4926999;29;20248;-88
2023/09/06 03:38:39;;;;;;;4.32;1.40;;;22.30;91.70;;;;;;4909006;29;20236;-90
2023/09/06 03:41:15;;;;;;;3.90;1.10;;;22.20;91.80;;;;;;4936977;29;20225;-89
2023/09/06 03:43:48;;;;;;;3.35;1.00;;;22.00;91.80;;;;;;4930940;29;20236;-91
2023/09/06 03:46:20;;;;;;;3.30;0.90;;;22.00;92.50;;;;;;4929592;29;20290;-90
2023/09/06 03:48:51;;;;;;;7.72;1.17;;;22.10;92.20;;;;;;4930463;29;20197;-92
2023/09/06 03:51:22;;;;;;;3.67;1.20;;;22.10;91.50;;;;;;4929706;29;20212;-93
2023/09/06 03:53:53;;;;;;;2.60;0.80;;;21.90;91.60;;;;;;4936897;29;20212;-92
2023/09/06 03:56:27;;;;;;;7.18;1.17;;;21.90;92.30;;;;;;4943052;29;20205;-91
2023/09/06 03:59:00;;;;;;;4.40;1.08;;;21.80;93.00;;;;;;4932817;29;20226;-91
2023/09/06 04:01:32;;;;;;;2.83;0.80;;;21.70;93.80;;;;;;4947665;29;20225;-92
2023/09/06 04:04:04;;;;;;;3.42;1.20;;;21.70;94.50;;;;;;4936788;29;20201;-89
2023/09/06 04:06:35;;;;;;;3.72;1.17;;;21.60;95.60;;;;;;4937152;29;20205;-88
2023/09/06 04:09:12;;;;;;;2.60;0.80;;;21.50;96.70;;;;;;4941604;29;20207;-89
2023/09/06 04:11:47;;;;;;;2.90;1.00;;;21.50;96.40;;;;;;4930583;29;20613;-90
2023/09/06 04:14:17;;;;;;;6.43;0.95;;;21.40;97.20;;;;;;4920230;29;20203;-89
2023/09/06 04:16:49;;;;;;;5.82;0.98;;;21.50;97.70;;;;;;4934379;29;20263;-91
2023/09/06 04:19:20;;;;;;;6.68;1.00;;;21.50;98.00;;;;;;4936646;29;20679;-88
2023/09/06 04:21:51;;;;;;;3.25;1.05;;;21.50;98.50;;;;;;4931963;29;20228;-90
2023/09/06 04:24:22;;;;;;;5.72;1.52;;;21.50;98.80;;;;;;4935945;29;20620;-90
2023/09/06 04:26:56;;;;;;;3.85;1.15;;;21.60;98.00;;;;;;4935334;29;20207;-89
2023/09/06 04:29:27;;;;;;;5.82;1.25;;;21.40;98.30;;;;;;4926984;29;20262;-89
2023/09/06 04:31:58;;;;;;;3.90;1.05;;;21.40;98.10;;;;;;4934199;29;20211;-89
2023/09/06 04:34:29;;;;;;;2.17;0.98;;;21.40;97.70;;;;;;4935394;29;20225;-88
2023/09/06 04:37:02;;;;;;;5.03;1.02;;;21.30;97.20;;;;;;4932533;29;20201;-89
2023/09/06 04:39:35;;;;;;;4.07;1.10;;;21.30;96.00;;;;;;4934463;29;20227;-88
2023/09/06 04:42:11;;;;;;;4.55;1.27;;;21.20;95.80;;;;;;4934405;29;20304;-91
2023/09/06 04:44:42;;;;;;;7.07;1.27;;;21.20;97.40;;;;;;4935677;29;20228;-91
2023/09/06 04:47:15;;;;;;;5.22;1.20;;;21.20;98.20;;;;;;4918074;29;20231;-91
2023/09/06 04:49:48;;;;;;;4.28;1.10;;;21.20;99.10;;;;;;4933852;29;20205;-89
2023/09/06 04:52:18;;;;;;;4.32;1.15;;;21.20;99.30;;;;;;4933531;29;20201;-91
2023/09/06 04:54:50;;;;;;;5.00;1.13;;;21.30;99.50;;;;;;4916176;29;20205;-89
2023/09/06 04:57:25;;;;;;;4.53;1.02;;;21.30;98.10;;;;;;4916466;29;20212;-90
2023/09/06 04:59:58;;;;;;;3.65;1.20;;;21.40;97.60;;;;;;4917061;29;20248;-90
2023/09/06 05:02:29;;;;;;;4.82;1.40;;;21.40;97.40;;;;;;4917064;29;20626;-89
2023/09/06 05:05:00;;;;;;;4.00;1.25;;;21.40;96.90;;;;;;4919353;29;20204;-90
2023/09/06 05:07:31;;;;;;;4.88;1.20;;;21.30;98.20;;;;;;4934464;29;20617;-89
2023/09/06 05:10:03;;;;;;;6.47;1.30;;;21.40;98.30;;;;;;4929163;29;20204;-89
2023/09/06 05:12:36;;;;;;;4.72;0.90;;;21.40;98.50;;;;;;4935138;29;20216;-89
2023/09/06 05:15:08;;;;;;;6.43;1.20;;;21.40;98.40;;;;;;4933221;29;20196;-89
2023/09/06 05:17:39;;;;;;;4.05;0.93;;;21.40;98.50;;;;;;4917549;29;20248;-90
2023/09/06 05:20:30;;;;;;;3.92;1.08;;;21.40;97.70;;;;;;4918899;29;20273;-89
2023/09/06 05:23:02;;;;;;;2.90;0.82;;;21.40;97.70;;;;;;4928371;29;20288;-89
2023/09/06 05:25:34;;;;;;;5.13;1.10;;;21.40;98.00;;;;;;4917674;29;20217;-90
2023/09/06 05:28:09;;;;;;;3.78;1.00;;;21.30;97.90;;;;;;4930635;29;20212;-90
2023/09/06 05:30:42;;;;;;;3.78;0.98;;;21.30;97.80;;;;;;4935154;29;20262;-89
2023/09/06 05:33:14;;;;;;;6.15;1.15;;;21.20;98.40;;;;;;4936223;29;20235;-90
2023/09/06 05:35:46;;;;;;;3.60;1.10;;;21.30;98.10;;;;;;4932066;29;20185;-90
2023/09/06 05:38:17;;;;;;;3.30;1.00;;;21.30;97.80;;;;;;4917400;29;20209;-91
2023/09/06 05:40:50;;;;;;;5.70;1.00;;;21.30;98.10;;;;;;4921718;29;20231;-90
2023/09/06 05:43:25;;;;;;;3.80;0.95;;;21.20;98.20;;;;;;4934113;29;20213;-89
2023/09/06 05:45:57;;;;;;;4.90;1.10;;;21.20;99.10;;;;;;4930820;29;20228;-90
2023/09/06 05:48:28;;;;;;;4.10;1.15;;;21.20;99.50;;;;;;4936831;29;20205;-91
2023/09/06 05:50:59;;;;;;;7.65;1.20;;;21.20;99.70;;;;;;4935051;29;20196;-91
2023/09/06 05:53:30;;;;;;;4.25;1.25;;;21.30;99.50;;;;;;4937435;29;20235;-94
2023/09/06 05:56:01;;;;;;;3.90;1.08;;;21.30;99.90;;;;;;4946326;29;20201;-92
2023/09/06 05:58:37;;;;;;;3.58;1.08;;;21.30;99.90;;;;;;4953795;29;20207;-93
2023/09/06 06:01:11;;;;;;;3.97;1.20;;;21.30;99.90;;;;;;4940664;29;20213;-92
2023/09/06 06:03:43;;;;;;;4.93;1.17;;;21.50;99.90;;;;;;4940502;29;20640;-91
2023/09/06 06:06:16;;;;;;;5.65;1.20;;;21.50;99.90;;;;;;4939165;29;20565;-93
2023/09/06 06:08:47;;;;;;;4.65;1.13;;;21.70;99.90;;;;;;4938644;29;20312;-90
2023/09/06 06:11:18;;;;;;;6.43;1.40;;;21.80;99.90;;;;;;4929799;29;20208;-90
2023/09/06 06:13:53;;;;;;;3.85;1.15;;;21.90;99.90;;;;;;4939102;29;20197;-90
2023/09/06 06:16:24;;;;;;;3.38;1.10;;;21.80;99.90;;;;;;4937593;29;20202;-90
2023/09/06 06:18:55;;;;;;;6.57;1.20;;;21.80;99.90;;;;;;4937982;29;20205;-91
2023/09/06 06:21:28;;;;;;;4.97;1.00;;;21.70;99.90;;;;;;4937809;29;20221;-92
2023/09/06 06:23:59;;;;;;;2.55;1.38;;;21.60;99.90;;;;;;4919574;29;20239;-91
2023/09/06 06:26:31;;;;;;;3.50;1.08;;;21.60;99.90;;;;;;4927847;29;20203;-90
2023/09/06 06:29:03;;;;;;;6.03;1.02;;;21.60;99.90;;;;;;4952101;28;20264;-91
2023/09/06 06:31:34;;;;;;;8.00;1.20;;;21.50;99.90;;;;;;4937258;29;20201;-90
2023/09/06 06:34:05;;;;;;;1.60;0.70;;;21.50;99.90;;;;;;4937684;29;20229;-89
2023/09/06 06:36:36;;;;;;;5.80;1.10;;;21.40;99.90;;;;;;4920984;29;20202;-90
2023/09/06 06:39:07;;;;;;;7.75;1.10;;;21.10;99.90;;;;;;4937772;29;20208;-88
2023/09/06 06:41:38;;;;;;;4.20;1.20;;;21.30;99.90;;;;;;4934088;29;20689;-90
2023/09/06 06:44:11;;;;;;;5.85;1.10;;;21.20;99.90;;;;;;4927091;29;20223;-88
2023/09/06 06:46:42;;;;;;;5.53;1.48;;;21.00;99.90;;;;;;4921421;29;20229;-90
2023/09/06 06:49:15;;;;;;;5.85;1.20;;;21.10;99.90;;;;;;4936204;29;20284;-91
2023/09/06 06:51:46;;;;;;;5.40;1.25;;;20.90;99.90;;;;;;4931341;29;20288;-85
2023/09/06 06:54:15;;;;;;;6.20;1.30;;;20.90;99.90;;;;;;4917528;29;20201;-86
2023/09/06 06:56:46;;;;;;;4.47;1.10;;;20.90;99.90;;;;;;4933936;29;20208;-85
2023/09/06 06:59:18;;;;;;;5.35;1.40;;;20.90;99.90;;;;;;4935841;29;20232;-85
2023/09/06 07:01:49;;;;;;;6.82;1.10;;;20.80;99.90;;;;;;4936364;29;20283;-87
2023/09/06 07:04:20;;;;;;;4.60;1.25;;;20.80;99.90;;;;;;4936063;29;20618;-87
2023/09/06 07:06:51;;;;;;;5.45;1.13;;;20.60;99.90;;;;;;4918521;29;20206;-87
2023/09/06 07:09:24;;;;;;;5.10;1.27;;;20.40;99.90;;;;;;4921171;29;20568;-87
2023/09/06 07:11:55;;;;;;;5.85;1.30;;;20.30;99.90;;;;;;4932734;29;20668;-88
2023/09/06 07:14:27;;;;;;;7.53;1.20;;;20.20;99.90;;;;;;4932560;29;20201;-88
2023/09/06 07:16:58;;;;;;;3.25;1.20;;;20.10;99.90;;;;;;4937453;29;20211;-89
2023/09/06 07:19:29;;;;;;;4.63;1.05;;;19.90;99.90;;;;;;4921629;29;20596;-88
2023/09/06 07:22:01;;;;;;;4.45;1.05;;;19.90;99.90;;;;;;4902049;29;20221;-88
2023/09/06 07:24:31;;;;;;;4.43;1.00;;;19.80;99.90;;;;;;4918454;29;20258;-87
2023/09/06 07:27:03;;;;;;;9.10;1.52;;;19.80;99.90;;;;;;4938249;29;20208;-90
2023/09/06 07:29:37;;;;;;;3.35;1.30;;;19.60;99.90;;;;;;4922795;29;20201;-91
2023/09/06 07:32:07;;;;;;;6.50;1.27;;;19.60;99.90;;;;;;4920285;29;20205;-90
2023/09/06 07:34:38;;;;;;;5.00;1.00;;;19.50;99.90;;;;;;4944762;29;20221;-91
2023/09/06 07:37:10;;;;;;;3.55;1.00;;;19.40;99.90;;;;;;4949047;29;20202;-90
2023/09/06 07:39:40;;;;;;;9.32;1.63;;;19.30;99.90;;;;;;4919143;29;20661;-90
2023/09/06 07:42:22;;;;;;;5.03;1.42;;;19.30;99.90;;;;;;4920479;29;20227;-90
2023/09/06 07:44:56;;;;;;;3.38;1.00;;;19.20;99.90;;;;;;4911498;29;20216;-89
2023/09/06 07:47:27;;;;;;;5.78;1.30;;;19.20;99.90;;;;;;4922528;29;20306;-88
2023/09/06 07:50:00;;;;;;;6.15;1.30;;;19.20;99.90;;;;;;4931570;29;20208;-87
2023/09/06 07:52:31;;;;;;;4.72;1.13;;;19.10;99.90;;;;;;4936275;29;20312;-87
2023/09/06 07:55:02;;;;;;;7.13;2.65;;;19.10;99.90;;;;;;4917463;29;20212;-87
2023/09/06 07:57:33;;;;;;;4.07;1.15;;;19.10;99.90;;;;;;4912719;29;20247;-87
2023/09/06 08:00:07;;;;;;;5.40;1.55;;;19.10;99.90;;;;;;4932036;29;20680;-88
2023/09/06 08:02:37;;;;;;;4.38;1.20;;;19.10;99.90;;;;;;4924383;29;20577;-87
2023/09/06 08:05:09;;;;;;;7.80;1.70;;;19.00;99.90;;;;;;4935258;29;20203;-87
2023/09/06 08:07:40;;;;;;;5.80;1.45;;;18.90;99.90;;;;;;4938078;29;20295;-87
2023/09/06 08:10:13;;;;;;;4.25;1.33;;;19.00;99.90;;;;;;4936866;29;20205;-89
2023/09/06 08:12:46;;;;;;;7.30;1.38;;;18.90;99.90;;;;;;4929755;29;20571;-89
2023/09/06 08:15:18;;;;;;;6.32;1.30;;;18.90;99.90;;;;;;4918377;29;20275;-89
2023/09/06 08:17:49;;;;;;;4.90;1.63;;;18.80;99.90;;;;;;4932775;29;20201;-88
2023/09/06 08:20:20;;;;;;;6.30;1.90;;;18.80;99.90;;;;;;4923077;29;20695;-89
2023/09/06 08:22:52;;;;;;;6.55;2.00;;;18.80;99.90;;;;;;4929260;29;20283;-87
2023/09/06 08:25:23;;;;;;;8.80;2.30;;;18.80;99.90;;;;;;4939103;29;20576;-87
2023/09/06 08:27:54;;;;;;;5.53;1.60;;;18.80;99.90;;;;;;4939189;29;20215;-89
2023/09/06 08:30:30;;;;;;;4.25;1.52;;;18.80;99.90;;;;;;4940201;29;20695;-88
2023/09/06 08:33:02;;;;;;;10.20;2.05;;;18.80;99.90;;;;;;4938615;29;20212;-89
2023/09/06 08:35:32;;;;;;;7.43;1.40;;;18.80;99.90;;;;;;4936953;29;20213;-87
2023/09/06 08:38:03;;;;;;;8.82;2.00;;;18.80;99.90;;;;;;4937439;29;20208;-89
2023/09/06 08:40:35;;;;;;;4.97;1.42;;;18.80;99.90;;;;;;4945727;28;20272;-88
2023/09/06 08:43:06;;;;;;;9.30;1.80;;;18.70;99.90;;;;;;4941048;29;20232;-88
2023/09/06 08:45:42;;;;;;;7.63;1.80;;;18.70;99.90;;;;;;4936710;29;20209;-88
2023/09/06 08:48:14;;;;;;;5.88;1.80;;;18.70;99.90;;;;;;4936144;29;20206;-88
2023/09/06 08:50:47;;;;;;;3.92;1.38;;;18.70;99.90;;;;;;4930502;29;20201;-87
2023/09/06 08:53:19;;;;;;;7.13;1.45;;;18.60;99.90;;;;;;4917409;29;20580;-88
2023/09/06 08:55:51;;;;;;;4.60;1.83;;;18.60;99.90;;;;;;4908366;29;20719;-89
2023/09/06 08:58:23;;;;;;;5.30;1.60;;;18.70;99.90;;;;;;4934045;29;20200;-89
2023/09/06 09:00:58;;;;;;;6.20;1.52;;;18.60;99.90;;;;;;4933008;29;20252;-87
2023/09/06 09:03:29;;;;;;;4.68;1.40;;;18.70;99.90;;;;;;4927038;29;20235;-86
2023/09/06 09:06:06;;;;;;;8.80;1.42;;;18.60;99.90;;;;;;4934424;29;20211;-85
2023/09/06 09:08:37;;;;;;;7.75;1.70;;;18.60;99.90;;;;;;4931900;29;20287;-86
2023/09/06 09:11:12;;;;;;;7.95;2.10;;;18.60;99.90;;;;;;4926369;29;20280;-86
2023/09/06 09:13:45;;;;;;;9.43;2.22;;;18.60;99.90;;;;;;4915827;29;20209;-86
2023/09/06 09:16:19;;;;;;;5.40;2.10;;;18.60;99.90;;;;;;4915260;29;20205;-86
2023/09/06 09:18:49;;;;;;;15.35;5.35;;;18.60;99.90;;;;;;4918403;29;20207;-88
2023/09/06 09:21:20;;;;;;;7.30;1.67;;;18.60;99.90;;;;;;4920328;29;20202;-86
2023/09/06 09:23:55;;;;;;;5.32;1.30;;;18.60;99.90;;;;;;4915296;29;20225;-86
2023/09/06 09:26:26;;;;;;;5.55;2.22;;;18.60;99.90;;;;;;4920540;29;20572;-87
2023/09/06 09:28:57;;;;;;;6.85;1.50;;;18.60;99.90;;;;;;4934154;29;20214;-87
2023/09/06 09:31:30;;;;;;;7.32;1.50;;;18.50;99.90;;;;;;4928539;29;20211;-86
2023/09/06 09:34:01;;;;;;;11.00;1.83;;;18.60;99.90;;;;;;4927077;29;20268;-87
2023/09/06 09:36:34;;;;;;;6.47;1.35;;;18.50;99.90;;;;;;4932797;29;20205;-85
2023/09/06 09:39:13;;;;;;;5.35;1.27;;;18.40;99.90;;;;;;4933085;29;20252;-85
2023/09/06 09:41:44;;;;;;;9.10;1.60;;;18.50;99.90;;;;;;4922095;29;20707;-87
2023/09/06 09:44:19;;;;;;;6.22;1.45;;;18.50;99.90;;;;;;4929044;29;20222;-86
2023/09/06 09:46:56;;;;;;;6.72;1.27;;;18.50;99.90;;;;;;4943573;29;20199;-87
2023/09/06 09:49:28;;;;;;;4.53;1.40;;;18.50;99.90;;;;;;4917027;29;20281;-87
2023/09/06 09:52:00;;;;;;;6.03;1.58;;;18.50;99.90;;;;;;4922394;29;20215;-88
2023/09/06 09:54:33;;;;;;;6.35;1.60;;;18.50;99.90;;;;;;4934414;29;20209;-87
2023/09/06 09:57:07;;;;;;;10.85;1.38;;;18.50;99.90;;;;;;4933865;29;20667;-87
2023/09/06 09:59:40;;;;;;;10.77;1.50;;;18.40;99.90;;;;;;4929534;29;20215;-86
2023/09/06 10:02:15;;;;;;;6.57;1.50;;;18.40;99.90;;;;;;4937715;29;20575;-85
2023/09/06 10:04:46;;;;;;;7.57;1.55;;;18.40;99.90;;;;;;4948099;29;20306;-87
2023/09/06 10:07:19;;;;;;;9.05;1.63;;;18.30;99.90;;;;;;4933876;29;20236;-85
2023/09/06 10:09:52;;;;;;;8.80;1.85;;;18.30;99.90;;;;;;4933249;29;20211;-86
2023/09/06 10:12:23;;;;;;;7.78;1.30;;;18.30;99.90;;;;;;4933589;29;20201;-87
2023/09/06 10:14:54;;;;;;;6.85;1.45;;;18.30;99.90;;;;;;4922547;29;20205;-86
2023/09/06 10:17:27;;;;;;;7.20;1.63;;;18.20;99.90;;;;;;4924790;29;20208;-86
2023/09/06 10:19:59;;;;;;;8.38;1.50;;;18.30;99.90;;;;;;4920210;29;20220;-86
2023/09/06 10:22:31;;;;;;;7.22;1.55;;;18.30;99.90;;;;;;4915663;29;20233;-86
2023/09/06 10:25:08;;;;;;;6.32;1.33;;;18.30;99.90;;;;;;4925501;29;20201;-86
2023/09/06 10:27:47;;;;;;;8.80;1.40;;;18.30;99.90;;;;;;4921836;29;20343;-87
2023/09/06 10:30:18;;;;;;;7.43;1.30;;;18.30;99.90;;;;;;4914276;29;20223;-86
2023/09/06 10:32:52;;;;;;;8.70;1.60;;;18.30;99.90;;;;;;4919476;29;20267;-86
2023/09/06 10:35:25;;;;;;;7.32;1.38;;;18.40;99.90;;;;;;4916105;29;20208;-86
2023/09/06 10:38:10;;;;;;;5.53;1.30;;;18.30;99.90;;;;;;4937212;29;20192;-87
2023/09/06 10:41:10;;;;;;;9.48;1.92;;;18.30;99.90;;;;;;4934675;29;20200;-86
2023/09/06 10:43:57;;;;;;;6.40;1.23;;;18.30;99.90;;;;;;4936832;29;20284;-86
2023/09/06 10:46:30;;;;;;;10.15;1.77;;;18.30;99.90;;;;;;4936413;29;20661;-86
2023/09/06 10:49:33;;;;;;;7.07;1.58;;;18.30;99.90;;;;;;4936629;29;20288;-86
2023/09/06 10:52:06;;;;;;;4.88;1.30;;;18.30;99.90;;;;;;4920139;29;20208;-85
2023/09/06 10:54:42;;;;;;;6.70;1.92;;;18.30;99.90;;;;;;4925936;29;20289;-85
2023/09/06 10:57:14;;;;;;;8.75;1.70;;;18.20;99.90;;;;;;4930394;29;20197;-85
2023/09/06 10:59:47;;;;;;;7.65;1.48;;;18.20;99.90;;;;;;4931072;29;20196;-84
2023/09/06 11:02:27;;;;;;;6.93;1.60;;;18.20;99.90;;;;;;4936438;29;20275;-85
2023/09/06 11:05:14;;;;;;;7.90;1.70;;;18.30;99.90;;;;;;4936141;29;20201;-85
2023/09/06 11:07:46;;;;;;;8.15;1.10;;;18.20;99.90;;;;;;4926956;29;20267;-86
2023/09/06 11:10:22;;;;;;;6.55;1.48;;;18.20;99.90;;;;;;4919767;29;20204;-85
2023/09/06 11:12:53;;;;;;;8.13;1.38;;;18.10;99.90;;;;;;4920234;29;20200;-84
2023/09/06 11:15:25;;;;;;;6.15;1.20;;;18.20;99.90;;;;;;4934368;29;20197;-84
2023/09/06 11:18:03;;;;;;;6.90;1.73;;;18.20;99.90;;;;;;4935162;29;20203;-84
2023/09/06 11:20:36;;;;;;;8.57;1.55;;;18.30;99.90;;;;;;4935828;29;20207;-85
2023/09/06 11:23:07;;;;;;;8.23;1.77;;;18.30;99.90;;;;;;4924995;29;20225;-85
2023/09/06 11:25:38;;;;;;;12.30;1.75;;;18.30;99.90;;;;;;4922559;29;20200;-85
2023/09/06 11:28:19;;;;;;;9.52;1.60;;;18.20;99.90;;;;;;4935676;29;20201;-85
2023/09/06 11:30:51;;;;;;;9.50;1.73;;;18.20;99.90;;;;;;4933334;29;20204;-85
2023/09/06 11:33:22;;;;;;;5.80;1.33;;;18.20;99.90;;;;;;4929511;29;20267;-84
2023/09/06 11:35:56;;;;;;;5.45;1.38;;;18.20;99.90;;;;;;4935438;29;20201;-85
2023/09/06 11:38:30;;;;;;;7.20;1.70;;;18.20;99.90;;;;;;4935909;29;20738;-85
2023/09/06 11:41:03;;;;;;;5.22;1.33;;;18.20;99.90;;;;;;4933345;29;20209;-84
2023/09/06 11:43:35;;;;;;;7.43;1.40;;;18.10;99.90;;;;;;4920686;29;20229;-85
2023/09/06 11:46:05;;;;;;;9.00;1.48;;;18.10;99.90;;;;;;4924434;29;20712;-86
2023/09/06 11:48:38;;;;;;;6.00;1.50;;;18.10;99.90;;;;;;4934586;29;20205;-86
2023/09/06 11:51:13;;;;;;;7.60;1.40;;;18.10;99.90;;;;;;4928969;29;20283;-86
2023/09/06 11:53:54;;;;;;;7.25;1.50;;;18.20;99.90;;;;;;4928795;29;20296;-85
2023/09/06 11:56:33;;;;;;;8.50;1.75;;;18.10;99.90;;;;;;4921096;29;20196;-86
2023/09/06 11:59:06;;;;;;;7.50;1.58;;;18.10;99.90;;;;;;4950408;29;20204;-86
2023/09/06 12:01:44;;;;;;;6.88;1.50;;;18.10;99.90;;;;;;4942405;29;20200;-85
2023/09/06 12:04:16;;;;;;;6.85;1.33;;;18.10;99.90;;;;;;4941090;29;20220;-86
2023/09/06 12:06:51;;;;;;;4.68;1.23;;;18.00;99.90;;;;;;4948216;29;20201;-85
2023/09/06 12:09:23;;;;;;;7.57;1.42;;;18.00;99.90;;;;;;4940153;29;20664;-86
2023/09/06 12:11:55;;;;;;;9.57;1.52;;;18.00;99.90;;;;;;4932203;29;20207;-87
2023/09/06 12:14:26;;;;;;;7.55;1.38;;;18.00;99.90;;;;;;4937600;29;20236;-85
2023/09/06 12:17:00;;;;;;;8.18;1.60;;;18.00;99.90;;;;;;4920798;29;20202;-85
2023/09/06 12:19:31;;;;;;;6.03;1.40;;;17.90;99.90;;;;;;4921653;29;20258;-85
2023/09/06 12:22:05;;;;;;;7.50;1.60;;;17.90;99.90;;;;;;4922055;29;20205;-85
2023/09/06 12:24:36;;;;;;;5.55;1.50;;;17.90;99.90;;;;;;4921419;29;20229;-86
2023/09/06 12:27:08;;;;;;;6.78;1.20;;;17.90;99.90;;;;;;4935696;29;20239;-86
2023/09/06 12:29:39;;;;;;;5.63;1.40;;;17.80;99.90;;;;;;4939787;29;20201;-86
2023/09/06 12:32:10;;;;;;;6.10;1.27;;;17.80;99.90;;;;;;4931939;29;20202;-86
2023/09/06 12:34:42;;;;;;;6.00;1.40;;;17.80;99.90;;;;;;4936217;29;20225;-86
2023/09/06 12:37:17;;;;;;;5.30;1.40;;;17.80;99.90;;;;;;4926935;29;20225;-86
2023/09/06 12:39:48;;;;;;;5.47;1.25;;;17.80;99.90;;;;;;4938285;29;20204;-86
2023/09/06 12:42:19;;;;;;;5.95;1.60;;;17.80;99.90;;;;;;4938700;29;20228;-85
2023/09/06 12:44:51;;;;;;;7.03;1.75;;;17.80;99.90;;;;;;4927031;29;20255;-86
2023/09/06 12:47:22;;;;;;;6.28;1.65;;;17.80;99.90;;;;;;4938509;29;20204;-85
2023/09/06 12:49:53;;;;;;;5.65;1.55;;;17.80;99.90;;;;;;4926300;29;20600;-85
2023/09/06 12:52:26;;;;;;;6.43;1.38;;;17.80;99.90;;;;;;4918201;29;20197;-85
2023/09/06 12:54:57;;;;;;;5.75;1.20;;;17.80;99.90;;;;;;4929132;29;20645;-84
2023/09/06 12:57:29;;;;;;;5.35;1.60;;;17.80;99.90;;;;;;4916870;29;20200;-86
2023/09/06 13:00:00;;;;;;;6.97;1.42;;;17.70;99.90;;;;;;4918760;29;20198;-86
2023/09/06 13:02:30;;;;;;;5.32;1.40;;;17.70;99.90;;;;;;4924108;29;20196;-85
2023/09/06 13:05:01;;;;;;;6.88;1.38;;;17.60;99.90;;;;;;4949008;29;20198;-86
2023/09/06 13:07:35;;;;;;;5.57;1.30;;;17.60;99.90;;;;;;4934501;29;20240;-88
2023/09/06 13:10:08;;;;;;;6.72;1.58;;;17.60;99.90;;;;;;4938794;29;20204;-86
2023/09/06 13:12:39;;;;;;;5.45;1.45;;;17.60;99.90;;;;;;4924341;29;20205;-86
2023/09/06 13:15:10;;;;;;;6.03;1.40;;;17.50;99.90;;;;;;4918103;29;20201;-85